首页
METAR-TAF:

METAR-TAF

机场 :

安徒生, 南卡罗来纳州, 美国

纬度: 34-29-52N, 经度: 082-42-35W, 海拔: 238米

当前天气观测

该预报发布于48分钟前的08:56 UTC
风速3节,风向东北
温度 4°C
湿度 93%
气压 1022 hPa
能見度: 12.9公里
阴天层高于8000英尺
小雨

METAR: KAND 150856Z AUTO 05003KT 8SM -RA OVC080 04/03 A3018 RMK AO2 SLP222 P0006 60019 T00440028 56021

时间: 04:44 (09:44 UTC)

预报

该预报发布于2小时和15分钟前的07:29 UTC
预报有效从15日的 07点(UTC)到 16日的 06点(UTC)
风速5节,风向东北
能見度: 10公里
散云层高于2500英尺
多云层高于7000英尺
小阵雨
从 15日的 1700点(UTC)
风速11节,风向东北,有时为19节阵风
能見度: 10公里
多云层高于5000英尺
附近有阵雨
从 16日的 0000点(UTC)
风速7节,风向东北
能見度: 10公里
阴天层高于5000英尺

TAF: KAND 150729Z 1507/1606 04005KT P6SM -SHRA SCT025 BKN070 FM151700 04011G19KT P6SM VCSH BKN050 FM160000 04007KT P6SM OVC050

超过4000个机场的气象观测和天气预报(METAR&TAF报告)。

可查询的气象台以黄色和红色小点在地图上表示。

将鼠标移到小点上方,可查看气象台名称。

然后点击查看天气观测和预报。

如需切换地图:点击带黑十字的绿色按钮放大地图;点击带横线的绿色按钮缩小地图;或者点击绿色箭头查看邻近地区的地图。


METAR-TAF: